createdAt,value
2023-12-23T00:01:44.406Z,64314.09
2023-12-23T00:05:10.596Z,64314.09
2023-12-23T00:08:36.204Z,64314.09
2023-12-23T00:12:01.762Z,64314.09
2023-12-23T00:15:27.136Z,64314.09
2023-12-23T00:18:52.929Z,64314.09
2023-12-23T00:22:18.464Z,64314.09
2023-12-23T00:25:43.950Z,64314.09
2023-12-23T00:29:10.421Z,64314.09
2023-12-23T00:32:35.852Z,64314.09
2023-12-23T00:36:01.298Z,64314.09
2023-12-23T00:39:26.655Z,64314.09
2023-12-23T00:42:52.224Z,64314.09
2023-12-23T00:46:18.318Z,64314.09
2023-12-23T00:49:46.193Z,64314.09
2023-12-23T00:53:11.967Z,64314.09
2023-12-23T00:56:37.479Z,64314.09
2023-12-23T01:00:03.037Z,64314.09
2023-12-23T01:03:28.431Z,64314.09
2023-12-23T01:06:53.873Z,64314.09
2023-12-23T01:10:23.529Z,64314.09
2023-12-23T01:13:48.989Z,64314.09
2023-12-23T01:17:14.505Z,64314.09
2023-12-23T01:20:43.558Z,64314.09
2023-12-23T01:24:09.336Z,64314.09
2023-12-23T01:27:34.858Z,64314.09
2023-12-23T01:31:00.353Z,64314.09
2023-12-23T01:34:25.713Z,64314.09
2023-12-23T01:37:51.412Z,64314.09
2023-12-23T01:41:17.171Z,64314.09
2023-12-23T01:44:43.102Z,64314.09
2023-12-23T01:48:11.006Z,64314.09
2023-12-23T01:51:37.324Z,64314.09
2023-12-23T01:55:06.510Z,64314.09
2023-12-23T01:58:32.537Z,64314.09
2023-12-23T02:01:58.278Z,64314.09
2023-12-23T02:05:24.320Z,64314.09
2023-12-23T02:08:49.960Z,64314.09
2023-12-23T02:12:21.905Z,64314.09
2023-12-23T02:15:54.760Z,64314.09
2023-12-23T02:19:20.187Z,64314.09
2023-12-23T02:22:46.101Z,64314.09
2023-12-23T02:26:14.253Z,64314.09
2023-12-23T02:29:40.587Z,64314.09
2023-12-23T02:33:08.271Z,64314.09
2023-12-23T02:36:36.735Z,64314.09
2023-12-23T02:40:02.175Z,64314.09
2023-12-23T02:43:27.502Z,64314.09
2023-12-23T02:46:53.154Z,64314.09
2023-12-23T02:50:19.121Z,64314.09
2023-12-23T02:53:44.681Z,64314.09
2023-12-23T02:57:12.496Z,64314.09
2023-12-23T03:00:37.994Z,64314.09
2023-12-23T03:04:03.406Z,64314.09
2023-12-23T03:07:28.714Z,64314.09
2023-12-23T03:10:54.166Z,64314.09
2023-12-23T03:14:19.592Z,64314.09
2023-12-23T03:17:44.991Z,64314.09
2023-12-23T03:21:10.872Z,64314.09
2023-12-23T03:24:40.206Z,64314.09
2023-12-23T03:28:05.794Z,64314.09
2023-12-23T03:31:34.255Z,64314.09
2023-12-23T03:35:00.087Z,64314.09
2023-12-23T03:38:25.560Z,64314.09
2023-12-23T03:41:50.975Z,64314.09
2023-12-23T03:45:18.432Z,64314.09
2023-12-23T03:48:43.905Z,64314.09
2023-12-23T03:52:12.816Z,64314.09
2023-12-23T03:55:40.807Z,64314.09
2023-12-23T03:59:06.251Z,64314.09
2023-12-23T04:02:31.931Z,64314.09
2023-12-23T04:05:57.518Z,64314.09
2023-12-23T04:09:23.783Z,64314.09
2023-12-23T04:12:49.589Z,64314.09
2023-12-23T04:16:15.883Z,64314.09
2023-12-23T04:19:41.440Z,64314.09
2023-12-23T04:23:06.947Z,64314.09
2023-12-23T04:26:34.018Z,64314.09
2023-12-23T04:29:59.433Z,64314.09
2023-12-23T04:33:25.042Z,64314.09
2023-12-23T04:36:50.905Z,64314.09
2023-12-23T04:40:17.386Z,64314.09
2023-12-23T04:43:43.065Z,64314.09
2023-12-23T04:47:08.972Z,64314.09
2023-12-23T04:50:34.369Z,64314.09
2023-12-23T04:53:59.792Z,64314.09
2023-12-23T04:57:25.254Z,64314.09
2023-12-23T05:00:51.217Z,64314.09
2023-12-23T05:04:16.896Z,64314.09
2023-12-23T05:07:42.321Z,64314.09
2023-12-23T05:11:08.393Z,64314.09
2023-12-23T05:14:36.732Z,64314.09
2023-12-23T05:18:02.098Z,64314.09
2023-12-23T05:21:27.477Z,64314.09
2023-12-23T05:24:52.854Z,64314.09
2023-12-23T05:28:18.217Z,64314.09
2023-12-23T05:31:44.108Z,64314.09
2023-12-23T05:35:09.667Z,64314.09
2023-12-23T05:38:35.233Z,64314.09
2023-12-23T05:42:01.154Z,64314.09
2023-12-23T05:45:26.727Z,64314.09
2023-12-23T05:48:52.502Z,64314.09
2023-12-23T05:52:18.054Z,64314.09
2023-12-23T05:55:43.672Z,64314.09
2023-12-23T05:59:09.809Z,64314.09
2023-12-23T06:02:38.150Z,64314.09
2023-12-23T06:06:07.634Z,64314.09
2023-12-23T06:09:33.025Z,64314.09
2023-12-23T06:12:58.412Z,64314.09
2023-12-23T06:16:23.807Z,64314.09
2023-12-23T06:19:49.271Z,64314.09
2023-12-23T06:23:20.020Z,64314.09
2023-12-23T06:26:46.261Z,64314.09
2023-12-23T06:30:12.273Z,64314.09
2023-12-23T06:33:37.892Z,64314.09
2023-12-23T06:37:03.681Z,64314.09
2023-12-23T06:40:30.411Z,64314.09
2023-12-23T06:43:55.779Z,64314.09
2023-12-23T06:47:22.466Z,64314.09
2023-12-23T06:50:50.726Z,64314.09
2023-12-23T06:54:16.326Z,64314.09
2023-12-23T06:57:41.906Z,64314.09
2023-12-23T07:01:07.992Z,64314.09
2023-12-23T07:04:33.354Z,64314.09
2023-12-23T07:07:58.836Z,64314.09
2023-12-23T07:11:24.433Z,64314.09
2023-12-23T07:14:49.746Z,64314.09
2023-12-23T07:18:15.411Z,64314.09
2023-12-23T07:21:40.756Z,64314.09
2023-12-23T07:25:06.553Z,64314.09
2023-12-23T07:28:31.927Z,64314.09
2023-12-23T07:31:57.540Z,64314.09
2023-12-23T07:35:23.159Z,64314.09
2023-12-23T07:38:49.439Z,64314.09
2023-12-23T07:42:14.802Z,64314.09
2023-12-23T07:45:40.570Z,64314.09
2023-12-23T07:49:06.190Z,64314.09
2023-12-23T07:52:31.642Z,64314.09
2023-12-23T07:55:57.655Z,64314.09
2023-12-23T07:59:23.241Z,64314.09
2023-12-23T08:02:49.023Z,64314.09
2023-12-23T08:06:16.712Z,64314.09
2023-12-23T08:09:42.599Z,64314.09
2023-12-23T08:13:08.613Z,64314.09
2023-12-23T08:16:34.071Z,64314.09
2023-12-23T08:19:59.709Z,64314.09
2023-12-23T08:23:25.100Z,64314.09
2023-12-23T08:26:51.128Z,64314.09
2023-12-23T08:30:16.587Z,64314.09
2023-12-23T08:33:41.973Z,64314.09
2023-12-23T08:37:07.444Z,64314.09
2023-12-23T08:40:33.076Z,64314.09
2023-12-23T08:43:58.807Z,64314.09
2023-12-23T08:47:24.630Z,64314.09
2023-12-23T08:50:50.241Z,64314.09
2023-12-23T08:54:15.567Z,64314.09
2023-12-23T08:57:40.997Z,64314.09
2023-12-23T09:01:07.051Z,64314.09
2023-12-23T09:04:32.854Z,64314.09
2023-12-23T09:07:58.491Z,64314.09
2023-12-23T09:10:25.518Z,98697.28
2023-12-23T09:12:52.445Z,98699.91
2023-12-23T09:15:19.502Z,98685.44
2023-12-23T09:17:47.169Z,98694.72
2023-12-23T09:20:14.237Z,98678.78
2023-12-23T09:22:41.223Z,98695.63
2023-12-23T09:25:08.301Z,98707.38
2023-12-23T09:27:35.156Z,98650.69
2023-12-23T09:30:02.202Z,98686.31
2023-12-23T09:32:29.122Z,98680.72
2023-12-23T09:34:56.231Z,98686.31
2023-12-23T09:37:23.710Z,98697.22
2023-12-23T09:39:51.085Z,98676.59
2023-12-23T09:42:18.052Z,98683.53
2023-12-23T09:44:45.181Z,98679.38
2023-12-23T09:47:12.486Z,98687.59
2023-12-23T09:49:39.480Z,98691.72
2023-12-23T09:52:06.847Z,98671.03
2023-12-23T09:54:40.065Z,98693.31
2023-12-23T09:57:08.303Z,98692.06
2023-12-23T09:59:36.461Z,98684.53
2023-12-23T10:02:03.553Z,98692.31
2023-12-23T10:04:30.772Z,98697.69
2023-12-23T10:06:57.873Z,98709.63
2023-12-23T10:09:24.973Z,98687.31
2023-12-23T10:11:52.480Z,98700.06
2023-12-23T10:14:22.438Z,98724.44
2023-12-23T10:16:50.255Z,98686.41
2023-12-23T10:19:17.908Z,98695.53
2023-12-23T10:21:45.428Z,98704.13
2023-12-23T10:24:12.373Z,98704.13
2023-12-23T10:26:40.957Z,98694.69
2023-12-23T10:29:10.423Z,98697.13
2023-12-23T10:31:38.441Z,98694.31
2023-12-23T10:34:11.959Z,98694.31
2023-12-23T10:36:50.499Z,98686.47
2023-12-23T10:39:26.678Z,98688.03
2023-12-23T10:42:05.566Z,98682.25
2023-12-23T10:44:33.334Z,98695.66
2023-12-23T10:47:01.660Z,98700.59
2023-12-23T10:49:29.650Z,98704.13
2023-12-23T10:52:01.189Z,98708.25
2023-12-23T10:54:29.200Z,98684.78
2023-12-23T10:56:59.312Z,98679.41
2023-12-23T10:59:26.353Z,98695.28
2023-12-23T11:01:54.277Z,98690.28
2023-12-23T11:04:21.843Z,98695.44
2023-12-23T11:06:50.775Z,98703.47
2023-12-23T11:09:19.081Z,98702.84
2023-12-23T11:11:47.344Z,98692.91
2023-12-23T11:14:15.264Z,98693.66
2023-12-23T11:16:43.925Z,98683.06
2023-12-23T11:19:10.752Z,98698.81
2023-12-23T11:21:37.686Z,98696.63
2023-12-23T11:24:37.659Z,98665.84
2023-12-23T11:27:05.644Z,98700.38
2023-12-23T11:29:32.557Z,98690.38
2023-12-23T11:32:19.693Z,98705.91
2023-12-23T11:34:46.636Z,98709.19
2023-12-23T11:37:13.801Z,98689.34
2023-12-23T11:39:43.056Z,98683.16
2023-12-23T11:42:11.355Z,98685.13
2023-12-23T11:44:42.897Z,98697.25
2023-12-23T11:47:09.902Z,98700.31
2023-12-23T11:49:41.029Z,98683.31
2023-12-23T11:52:09.316Z,98679.50
2023-12-23T11:54:36.756Z,98705.47
2023-12-23T11:57:04.915Z,98694.72
2023-12-23T11:59:33.611Z,98676.88
2023-12-23T12:02:03.101Z,98708.13
2023-12-23T12:04:30.093Z,98665.88
2023-12-23T12:06:56.919Z,98675.44
2023-12-23T12:09:23.925Z,98654.84
2023-12-23T12:11:50.828Z,98666.34
2023-12-23T12:14:17.756Z,98691.38
2023-12-23T12:16:44.606Z,98683.91
2023-12-23T12:19:12.070Z,98682.47
2023-12-23T12:21:39.049Z,98694.19
2023-12-23T12:24:06.951Z,98725.31
2023-12-23T12:26:33.983Z,98674.56
2023-12-23T12:29:00.884Z,98676.28
2023-12-23T12:31:27.691Z,98654.34
2023-12-23T12:33:54.692Z,98683.16
2023-12-23T12:36:21.872Z,98672.78
2023-12-23T12:38:48.928Z,98679.78
2023-12-23T12:41:16.906Z,98687.28
2023-12-23T12:43:45.332Z,98687.84
2023-12-23T12:46:16.507Z,98708.28
2023-12-23T12:48:45.245Z,98681.72
2023-12-23T12:51:12.216Z,98697.81
2023-12-23T12:53:39.223Z,98689.03
2023-12-23T12:56:10.132Z,98683.34
2023-12-23T12:58:37.586Z,98696.66
2023-12-23T13:01:05.085Z,98712.31
2023-12-23T13:03:32.207Z,98700.69
2023-12-23T13:05:59.348Z,98709.59
2023-12-23T13:08:26.304Z,98697.50
2023-12-23T13:10:53.153Z,98693.16
2023-12-23T13:13:20.147Z,98712.72
2023-12-23T13:15:47.444Z,98734.16
2023-12-23T13:18:15.476Z,98732.88
2023-12-23T13:20:42.574Z,98733.22
2023-12-23T13:23:09.940Z,98740.47
2023-12-23T13:25:36.760Z,98726.44
2023-12-23T13:28:03.749Z,98759.41
2023-12-23T13:30:30.725Z,98760.50
2023-12-23T13:32:57.595Z,98791.28
2023-12-23T13:35:25.118Z,98761.72
2023-12-23T13:37:52.003Z,98753.22
2023-12-23T13:40:18.797Z,98776.28
2023-12-23T13:42:46.661Z,98770.31
2023-12-23T13:45:13.958Z,98764.03
2023-12-23T13:47:41.513Z,98745.00
2023-12-23T13:50:09.692Z,98753.19
2023-12-23T13:52:36.587Z,98752.81
2023-12-23T13:55:05.155Z,98778.06
2023-12-23T13:57:32.116Z,98801.22
2023-12-23T13:59:58.971Z,98792.13
2023-12-23T14:02:25.851Z,98766.50
2023-12-23T14:04:53.158Z,98801.09
2023-12-23T14:07:20.845Z,98783.72
2023-12-23T14:09:50.418Z,98807.50
2023-12-23T14:12:17.376Z,98803.19
2023-12-23T14:14:44.301Z,98790.50
2023-12-23T14:17:11.217Z,98817.53
2023-12-23T14:19:38.125Z,98821.28
2023-12-23T14:22:05.374Z,98841.13
2023-12-23T14:24:32.281Z,98857.66
2023-12-23T14:27:00.107Z,98876.28
2023-12-23T14:29:27.288Z,98827.53
2023-12-23T14:31:56.191Z,98845.22
2023-12-23T14:34:25.107Z,98854.72
2023-12-23T14:36:56.718Z,98860.84
2023-12-23T14:39:25.410Z,98867.69
2023-12-23T14:41:53.941Z,98876.16
2023-12-23T14:44:24.299Z,98867.84
2023-12-23T14:46:51.624Z,98867.41
2023-12-23T14:49:18.790Z,98877.41
2023-12-23T14:51:45.897Z,98856.34
2023-12-23T14:54:13.088Z,98856.53
2023-12-23T14:56:39.892Z,98872.78
2023-12-23T14:59:09.145Z,98874.41
2023-12-23T15:01:36.831Z,98877.72
2023-12-23T15:04:04.203Z,98881.06
2023-12-23T15:06:31.582Z,98880.69
2023-12-23T15:08:58.454Z,98896.34
2023-12-23T15:11:28.193Z,98904.28
2023-12-23T15:13:56.240Z,98906.53
2023-12-23T15:16:25.997Z,98899.25
2023-12-23T15:18:56.092Z,98895.16
2023-12-23T15:21:24.545Z,98893.97
2023-12-23T15:23:51.670Z,98874.72
2023-12-23T15:26:18.518Z,98931.56
2023-12-23T15:28:45.353Z,98915.03
2023-12-23T15:31:12.183Z,98919.34
2023-12-23T15:33:39.237Z,98947.69
2023-12-23T15:36:08.430Z,98938.19
2023-12-23T15:38:36.235Z,98929.09
2023-12-23T15:41:03.418Z,98920.38
2023-12-23T15:43:30.231Z,98926.63
2023-12-23T15:45:57.738Z,98948.94
2023-12-23T15:48:24.836Z,98960.94
2023-12-23T15:50:51.716Z,98943.00
2023-12-23T15:53:18.609Z,98968.81
2023-12-23T15:55:45.524Z,99004.78
2023-12-23T15:58:12.591Z,98996.28
2023-12-23T16:00:39.532Z,98975.25
2023-12-23T16:03:06.874Z,98996.91
2023-12-23T16:05:33.759Z,99013.03
2023-12-23T16:08:03.669Z,99000.63
2023-12-23T16:10:31.701Z,98984.13
2023-12-23T16:12:58.655Z,99009.94
2023-12-23T16:15:25.833Z,99011.00
2023-12-23T16:17:52.743Z,99031.47
2023-12-23T16:20:19.583Z,99008.31
2023-12-23T16:22:46.399Z,99011.91
2023-12-23T16:25:13.301Z,99011.00
2023-12-23T16:27:40.472Z,99015.78
2023-12-23T16:30:08.351Z,99041.22
2023-12-23T16:32:35.327Z,99013.69
2023-12-23T16:35:02.551Z,99030.00
2023-12-23T16:37:29.895Z,99001.91
2023-12-23T16:39:56.826Z,99030.41
2023-12-23T16:42:23.817Z,99032.47
2023-12-23T16:44:51.944Z,99032.88
2023-12-23T16:47:19.128Z,99029.13
2023-12-23T16:49:47.161Z,99063.03
2023-12-23T16:52:14.257Z,99020.00
2023-12-23T16:54:41.148Z,99038.19
2023-12-23T16:57:08.224Z,99036.13
2023-12-23T16:59:35.118Z,99027.84
2023-12-23T17:02:02.707Z,99046.44
2023-12-23T17:04:29.792Z,99032.78
2023-12-23T17:06:56.665Z,99038.31
2023-12-23T17:09:23.681Z,99014.56
2023-12-23T17:11:50.871Z,99030.47
2023-12-23T17:14:17.998Z,99042.88
2023-12-23T17:16:45.412Z,99042.31
2023-12-23T17:19:12.580Z,99040.94
2023-12-23T17:21:39.491Z,99055.81
2023-12-23T17:24:06.688Z,99056.44
2023-12-23T17:26:33.955Z,99046.91
2023-12-23T17:29:01.097Z,99044.47
2023-12-23T17:31:28.282Z,99038.03
2023-12-23T17:33:55.594Z,99065.09
2023-12-23T17:36:22.645Z,99042.78
2023-12-23T17:38:52.271Z,99053.31
2023-12-23T17:41:19.597Z,99043.56
2023-12-23T17:43:46.584Z,99041.91
2023-12-23T17:46:13.386Z,99043.97
2023-12-23T17:48:40.412Z,99057.84
2023-12-23T17:51:07.468Z,99063.84
2023-12-23T17:53:34.408Z,99055.41
2023-12-23T17:56:08.371Z,99072.63
2023-12-23T17:58:35.521Z,99089.19
2023-12-23T18:01:02.579Z,99063.78
2023-12-23T18:03:30.098Z,99079.69
2023-12-23T18:05:57.097Z,99069.16
2023-12-23T18:08:24.260Z,99083.22
2023-12-23T18:10:51.270Z,99070.25
2023-12-23T18:13:22.206Z,99072.97
2023-12-23T18:15:49.532Z,99090.94
2023-12-23T18:18:19.003Z,99081.44
2023-12-23T18:20:46.396Z,99077.34
2023-12-23T18:23:13.434Z,99078.59
2023-12-23T18:25:40.688Z,99093.44
2023-12-23T18:28:07.608Z,99097.16
2023-12-23T18:30:34.558Z,99075.31
2023-12-23T18:33:01.737Z,99095.31
2023-12-23T18:35:29.145Z,99098.41
2023-12-23T18:37:56.216Z,99093.66
2023-12-23T18:40:23.114Z,99096.97
2023-12-23T18:42:50.342Z,99097.56
2023-12-23T18:45:17.595Z,99088.91
2023-12-23T18:47:47.923Z,99091.38
2023-12-23T18:50:15.222Z,99096.75
2023-12-23T18:52:42.068Z,99099.22
2023-12-23T18:55:09.127Z,99104.19
2023-12-23T18:57:36.056Z,99099.22
2023-12-23T19:00:03.956Z,99117.38
2023-12-23T19:02:31.611Z,99107.88
2023-12-23T19:05:03.567Z,99102.06
2023-12-23T19:07:31.120Z,99111.56
2023-12-23T19:09:58.001Z,99096.31
2023-12-23T19:12:25.213Z,99089.28
2023-12-23T19:14:52.589Z,99099.38
2023-12-23T19:17:19.580Z,99093.16
2023-12-23T19:19:47.091Z,99092.69
2023-12-23T19:22:14.357Z,99083.38
2023-12-23T19:24:41.301Z,99094.16
2023-12-23T19:27:08.111Z,99103.25
2023-12-23T19:29:38.533Z,99085.03
2023-12-23T19:32:06.885Z,99082.50
2023-12-23T19:34:33.949Z,99071.31
2023-12-23T19:37:00.741Z,99083.25
2023-12-23T19:39:27.558Z,99085.31
2023-12-23T19:41:54.808Z,99067.13
2023-12-23T19:44:23.431Z,99060.41
2023-12-23T19:46:50.411Z,99073.19
2023-12-23T19:49:18.284Z,99079.59
2023-12-23T19:54:12.609Z,99099.63
2023-12-23T19:56:39.925Z,99094.28
2023-12-23T19:59:08.644Z,99105.50
2023-12-23T20:01:35.529Z,99085.31
2023-12-23T20:04:03.084Z,99087.78
2023-12-23T20:06:30.560Z,99091.94
2023-12-23T20:08:58.353Z,99089.06
2023-12-23T20:11:26.110Z,99094.00
2023-12-23T20:13:53.507Z,99109.13
2023-12-23T20:16:27.141Z,99088.66
2023-12-23T20:18:54.869Z,99105.63
2023-12-23T20:21:22.129Z,99146.59
2023-12-23T20:23:50.825Z,99127.88
2023-12-23T20:26:17.907Z,99112.59
2023-12-23T20:28:45.686Z,99120.47
2023-12-23T20:31:13.050Z,99114.69
2023-12-23T20:33:40.357Z,99119.66
2023-12-23T20:36:07.746Z,99131.00
2023-12-23T20:38:34.689Z,99130.19
2023-12-23T20:41:01.812Z,99123.19
2023-12-23T20:43:29.655Z,99133.91
2023-12-23T20:45:56.537Z,99132.69
2023-12-23T20:48:24.120Z,99133.91
2023-12-23T20:50:52.327Z,99126.69
2023-12-23T20:53:20.579Z,99144.44
2023-12-23T20:55:48.332Z,99117.84
2023-12-23T20:58:15.668Z,99111.19
2023-12-23T21:00:45.652Z,99107.06
2023-12-23T21:03:12.922Z,99105.41
2023-12-23T21:05:39.799Z,99101.69
2023-12-23T21:08:07.244Z,99108.25
2023-12-23T21:10:37.236Z,99109.94
2023-12-23T21:13:04.548Z,99113.84
2023-12-23T21:15:31.462Z,99098.28
2023-12-23T21:17:58.469Z,99112.75
2023-12-23T21:20:25.724Z,99102.81
2023-12-23T21:22:53.247Z,99096.56
2023-12-23T21:25:20.415Z,99104.53
2023-12-23T21:27:47.508Z,99100.59
2023-12-23T21:30:14.944Z,99115.47
2023-12-23T21:32:41.956Z,99110.03
2023-12-23T21:35:09.054Z,99094.50
2023-12-23T21:37:35.917Z,99095.97
2023-12-23T21:40:03.018Z,99082.47
2023-12-23T21:42:30.249Z,99097.97
2023-12-23T21:44:57.073Z,99096.53
2023-12-23T21:47:24.122Z,99105.00
2023-12-23T21:49:51.259Z,99101.28
2023-12-23T21:52:18.659Z,99079.34
2023-12-23T21:54:46.115Z,99078.97
2023-12-23T21:57:12.974Z,99100.47
2023-12-23T21:59:39.860Z,99082.28
2023-12-23T22:02:06.683Z,99095.00
2023-12-23T22:04:33.494Z,99089.28
2023-12-23T22:07:00.315Z,99103.75
2023-12-23T22:09:27.535Z,99101.22
2023-12-23T22:11:54.395Z,99118.16
2023-12-23T22:14:21.250Z,99113.13
2023-12-23T22:16:50.895Z,99102.16
2023-12-23T22:19:18.281Z,99117.47
2023-12-23T22:21:45.337Z,99106.16
2023-12-23T22:24:12.158Z,99118.16
2023-12-23T22:26:39.107Z,99134.25
2023-12-23T22:29:06.728Z,99142.97
2023-12-23T22:31:33.477Z,99119.78
2023-12-23T22:34:01.574Z,99137.16
2023-12-23T22:36:28.546Z,99116.09
2023-12-23T22:38:55.375Z,99116.09
2023-12-23T22:41:22.808Z,99115.03
2023-12-23T22:43:50.265Z,99100.75
2023-12-23T22:46:17.548Z,99110.66
2023-12-23T22:48:44.476Z,99106.13
2023-12-23T22:51:11.323Z,99106.13
2023-12-23T22:53:38.157Z,99114.00
2023-12-23T22:56:06.206Z,99116.16
2023-12-23T22:58:33.182Z,99125.66
2023-12-23T23:01:00.872Z,99130.22
2023-12-23T23:03:27.963Z,99128.16
2023-12-23T23:05:55.101Z,99131.88
2023-12-23T23:08:22.825Z,99151.72
2023-12-23T23:10:50.263Z,99154.59
2023-12-23T23:13:17.516Z,99135.19
2023-12-23T23:15:44.312Z,99137.88
2023-12-23T23:18:11.288Z,99132.09
2023-12-23T23:20:38.385Z,99148.00
2023-12-23T23:23:05.734Z,99128.41
2023-12-23T23:25:32.834Z,99149.72
2023-12-23T23:28:00.169Z,99124.16
2023-12-23T23:30:30.246Z,99124.09
2023-12-23T23:32:57.390Z,99129.53
2023-12-23T23:35:24.583Z,99128.69
2023-12-23T23:37:52.183Z,99119.19
2023-12-23T23:40:19.035Z,99102.19
2023-12-23T23:42:45.841Z,99116.66
2023-12-23T23:45:12.780Z,99139.38
2023-12-23T23:47:40.042Z,99138.97
2023-12-23T23:50:08.387Z,99130.22
2023-12-23T23:52:35.511Z,99124.41
2023-12-23T23:55:02.478Z,99138.41
2023-12-23T23:57:29.378Z,99122.69
2023-12-23T23:59:56.557Z,99122.63
